createdAt,value
2022-08-26T00:02:33.785Z,18.76
2022-08-26T00:05:43.850Z,18.77
2022-08-26T00:08:51.370Z,18.82
2022-08-26T00:11:59.088Z,18.87
2022-08-26T00:15:05.932Z,18.78
2022-08-26T00:18:21.874Z,18.80
2022-08-26T00:21:30.332Z,18.84
2022-08-26T00:24:37.952Z,18.85
2022-08-26T00:27:45.930Z,18.85
2022-08-26T00:30:54.672Z,18.85
2022-08-26T00:34:02.267Z,18.84
2022-08-26T00:37:13.418Z,18.83
2022-08-26T00:40:33.418Z,18.78
2022-08-26T00:43:47.728Z,18.75
2022-08-26T00:50:25.972Z,18.73
2022-08-26T00:53:38.972Z,18.68
2022-08-26T00:57:05.814Z,18.63
2022-08-26T01:00:33.169Z,18.61
2022-08-26T01:03:41.014Z,18.54
2022-08-26T01:06:48.772Z,18.49
2022-08-26T01:09:57.111Z,18.43
2022-08-26T01:13:14.010Z,18.43
2022-08-26T01:16:23.053Z,18.38
2022-08-26T01:19:44.512Z,18.34
2022-08-26T01:23:06.216Z,18.25
2022-08-26T01:26:25.733Z,18.25
2022-08-26T01:29:33.891Z,18.21
2022-08-26T01:32:42.251Z,18.17
2022-08-26T01:35:50.332Z,18.14
2022-08-26T01:39:02.153Z,18.12
2022-08-26T01:42:17.872Z,18.10
2022-08-26T01:45:30.378Z,18.05
2022-08-26T01:48:43.012Z,18.04
2022-08-26T01:51:51.752Z,17.99
2022-08-26T01:55:00.975Z,17.98
2022-08-26T01:58:12.472Z,17.97
2022-08-26T02:01:23.123Z,17.94
2022-08-26T02:08:24.684Z,17.88
2022-08-26T02:11:36.752Z,17.88
2022-08-26T02:14:54.113Z,17.88
2022-08-26T02:18:02.575Z,17.89
2022-08-26T02:21:13.031Z,17.86
2022-08-26T02:24:34.611Z,17.85
2022-08-26T02:27:44.273Z,17.89
2022-08-26T02:30:54.871Z,17.86
2022-08-26T02:34:16.193Z,17.90
2022-08-26T02:37:23.038Z,17.90
2022-08-26T02:40:39.272Z,17.90
2022-08-26T02:43:47.410Z,17.91
2022-08-26T02:47:02.794Z,17.92
2022-08-26T02:50:10.353Z,17.88
2022-08-26T02:53:23.175Z,17.84
2022-08-26T02:56:33.076Z,17.80
2022-08-26T02:59:42.733Z,17.79
2022-08-26T03:02:49.769Z,17.74
2022-08-26T03:05:56.160Z,17.73
2022-08-26T03:09:02.001Z,17.73
2022-08-26T03:12:08.229Z,17.70
2022-08-26T03:15:16.451Z,17.66
2022-08-26T03:18:24.132Z,17.63
2022-08-26T03:21:30.916Z,17.57
2022-08-26T03:24:37.830Z,17.54
2022-08-26T03:27:43.557Z,17.56
2022-08-26T03:30:49.871Z,17.52
2022-08-26T03:33:59.536Z,17.49
2022-08-26T03:37:05.840Z,17.46
2022-08-26T03:40:12.910Z,17.44
2022-08-26T03:43:19.122Z,17.39
2022-08-26T03:46:25.192Z,17.38
2022-08-26T03:49:35.141Z,17.33
2022-08-26T03:52:43.923Z,17.28
2022-08-26T03:55:51.769Z,17.24
2022-08-26T03:58:58.049Z,17.22
2022-08-26T04:02:08.532Z,17.23
2022-08-26T04:05:33.121Z,17.20
2022-08-26T04:08:39.630Z,17.18
2022-08-26T04:11:46.501Z,17.19
2022-08-26T04:14:57.186Z,17.25
2022-08-26T04:18:03.760Z,17.31
2022-08-26T04:21:10.495Z,17.36
2022-08-26T04:24:19.730Z,17.41
2022-08-26T04:27:25.895Z,17.46
2022-08-26T04:30:33.129Z,17.54
2022-08-26T04:33:41.697Z,17.61
2022-08-26T04:36:49.633Z,17.65
2022-08-26T04:39:56.677Z,17.72
2022-08-26T04:43:02.731Z,17.79
2022-08-26T04:46:09.789Z,17.88
2022-08-26T04:49:21.859Z,18.00
2022-08-26T04:52:27.689Z,18.09
2022-08-26T04:55:39.808Z,18.16
2022-08-26T04:59:03.684Z,18.28
2022-08-26T05:02:13.138Z,18.40
2022-08-26T05:05:19.148Z,18.53
2022-08-26T05:08:26.918Z,18.69
2022-08-26T05:11:33.930Z,18.85
2022-08-26T05:14:42.175Z,19.01
2022-08-26T05:17:51.419Z,19.13
2022-08-26T05:20:57.565Z,19.27
2022-08-26T05:24:03.885Z,19.37
2022-08-26T05:27:11.831Z,19.45
2022-08-26T05:30:19.373Z,19.63
2022-08-26T05:33:25.710Z,19.73
2022-08-26T05:36:39.895Z,19.86
2022-08-26T05:39:48.768Z,19.99
2022-08-26T05:42:59.317Z,20.08
2022-08-26T05:46:10.714Z,20.16
2022-08-26T05:49:18.476Z,20.28
2022-08-26T05:52:28.103Z,20.30
2022-08-26T05:55:36.575Z,20.42
2022-08-26T05:58:49.055Z,20.54
2022-08-26T06:02:01.569Z,20.63
2022-08-26T06:05:13.914Z,20.71
2022-08-26T06:08:21.963Z,20.75
2022-08-26T06:11:39.079Z,20.94
2022-08-26T06:14:49.138Z,21.02
2022-08-26T06:18:00.015Z,21.18
2022-08-26T06:21:25.057Z,21.24
2022-08-26T06:24:52.635Z,21.34
2022-08-26T06:27:59.734Z,21.51
2022-08-26T06:31:11.521Z,21.71
2022-08-26T06:34:19.073Z,21.84
2022-08-26T06:37:26.996Z,21.94
2022-08-26T06:40:34.864Z,22.04
2022-08-26T06:43:42.539Z,22.22
2022-08-26T06:46:50.426Z,22.33
2022-08-26T06:50:09.575Z,22.45
2022-08-26T06:53:17.196Z,22.60
2022-08-26T06:56:27.352Z,22.76
2022-08-26T06:59:33.056Z,22.84
2022-08-26T07:02:40.049Z,22.97
2022-08-26T07:05:55.194Z,23.12
2022-08-26T07:09:09.782Z,23.31
2022-08-26T07:12:19.497Z,23.45
2022-08-26T07:15:31.548Z,23.62
2022-08-26T07:18:40.394Z,23.74
2022-08-26T07:21:48.216Z,23.64
2022-08-26T07:24:57.897Z,23.74
2022-08-26T07:28:06.234Z,24.04
2022-08-26T07:31:15.113Z,24.16
2022-08-26T07:34:26.272Z,24.48
2022-08-26T07:37:39.343Z,24.66
2022-08-26T07:40:49.037Z,24.82
2022-08-26T07:43:57.814Z,24.86
2022-08-26T07:47:24.047Z,25.05
2022-08-26T07:50:48.903Z,25.19
2022-08-26T07:54:01.294Z,25.35
2022-08-26T07:57:09.439Z,25.58
2022-08-26T08:00:22.874Z,25.70
2022-08-26T08:03:31.433Z,25.72
2022-08-26T08:06:41.597Z,25.66
2022-08-26T08:09:52.023Z,25.87
2022-08-26T08:13:01.998Z,26.07
2022-08-26T08:16:12.626Z,25.93
2022-08-26T08:19:38.983Z,26.16
2022-08-26T08:22:48.796Z,26.39
2022-08-26T08:26:06.578Z,26.76
2022-08-26T08:29:15.448Z,26.88
2022-08-26T08:32:22.823Z,27.30
2022-08-26T08:35:29.450Z,27.23
2022-08-26T08:38:37.117Z,27.48
2022-08-26T08:42:16.636Z,27.58
2022-08-26T08:45:47.075Z,27.48
2022-08-26T08:49:05.355Z,27.89
2022-08-26T08:52:42.276Z,28.04
2022-08-26T08:56:25.838Z,28.20
2022-08-26T08:59:44.798Z,28.19
2022-08-26T09:03:09.229Z,28.35
2022-08-26T09:06:19.620Z,28.54
2022-08-26T09:09:42.215Z,28.95
2022-08-26T09:12:51.915Z,28.86
2022-08-26T09:16:26.967Z,29.03
2022-08-26T09:19:45.017Z,29.41
2022-08-26T09:22:53.358Z,29.45
2022-08-26T09:26:08.254Z,29.60
2022-08-26T09:32:38.337Z,29.81
2022-08-26T09:35:49.052Z,29.68
2022-08-26T09:38:57.392Z,29.85
2022-08-26T09:42:16.994Z,30.02
2022-08-26T09:45:50.602Z,29.74
2022-08-26T09:48:59.993Z,30.22
2022-08-26T09:52:13.075Z,30.60
2022-08-26T09:55:24.658Z,30.79
2022-08-26T09:58:46.855Z,30.93
2022-08-26T10:01:56.012Z,31.12
2022-08-26T10:05:09.827Z,31.06
2022-08-26T10:08:47.681Z,31.28
2022-08-26T10:11:59.774Z,31.25
2022-08-26T10:15:15.195Z,31.38
2022-08-26T10:18:28.788Z,31.72
2022-08-26T10:21:57.934Z,31.97
2022-08-26T10:25:13.238Z,31.62
2022-08-26T10:28:35.736Z,32.45
2022-08-26T10:31:48.736Z,31.62
2022-08-26T10:35:06.737Z,31.61
2022-08-26T10:38:17.934Z,32.10
2022-08-26T10:41:29.696Z,31.64
2022-08-26T10:44:41.086Z,31.98
2022-08-26T10:48:02.907Z,32.74
2022-08-26T10:51:10.433Z,32.68
2022-08-26T10:54:34.935Z,32.66
2022-08-26T10:58:00.175Z,33.40
2022-08-26T11:01:50.975Z,33.58
2022-08-26T11:05:17.460Z,33.48
2022-08-26T11:08:26.114Z,33.94
2022-08-26T11:11:50.335Z,33.97
2022-08-26T11:14:58.749Z,33.83
2022-08-26T11:18:47.999Z,34.37
2022-08-26T11:22:29.430Z,34.45
2022-08-26T11:25:59.755Z,34.63
2022-08-26T11:29:13.401Z,35.11
2022-08-26T11:32:54.154Z,34.71
2022-08-26T11:36:12.213Z,32.91
2022-08-26T11:39:57.218Z,34.60
2022-08-26T11:43:09.633Z,34.73
2022-08-26T11:46:29.954Z,35.47
2022-08-26T11:49:39.634Z,35.93
2022-08-26T11:53:07.954Z,35.52
2022-08-26T11:56:35.734Z,36.28
2022-08-26T11:59:45.075Z,36.83
2022-08-26T12:02:54.719Z,35.97
2022-08-26T12:06:06.274Z,36.32
2022-08-26T12:09:26.811Z,37.05
2022-08-26T12:12:44.296Z,36.01
2022-08-26T12:16:05.843Z,36.36
2022-08-26T12:19:32.741Z,36.42
2022-08-26T12:22:48.030Z,36.52
2022-08-26T12:26:25.736Z,37.24
2022-08-26T12:29:34.276Z,37.05
2022-08-26T12:32:50.989Z,37.09
2022-08-26T12:36:10.295Z,37.17
2022-08-26T12:39:32.874Z,35.72
2022-08-26T12:42:46.156Z,36.53
2022-08-26T12:46:06.686Z,36.76
2022-08-26T12:49:14.191Z,37.04
2022-08-26T12:52:35.430Z,37.03
2022-08-26T12:55:50.096Z,37.13
2022-08-26T12:59:29.514Z,37.52
2022-08-26T13:02:42.105Z,37.78
2022-08-26T13:05:50.076Z,36.63
2022-08-26T13:09:29.629Z,35.99
2022-08-26T13:12:39.318Z,35.50
2022-08-26T13:15:46.676Z,34.54
2022-08-26T13:19:27.300Z,33.63
2022-08-26T13:22:35.095Z,34.16
2022-08-26T13:25:47.814Z,34.45
2022-08-26T13:29:01.800Z,33.89
2022-08-26T13:32:14.689Z,34.10
2022-08-26T13:35:23.450Z,33.82
2022-08-26T13:38:33.697Z,34.17
2022-08-26T13:41:43.556Z,35.75
2022-08-26T13:45:01.556Z,35.00
2022-08-26T13:48:11.649Z,35.58
2022-08-26T13:51:20.530Z,35.02
2022-08-26T13:54:31.154Z,36.43
2022-08-26T13:57:38.536Z,35.73
2022-08-26T14:00:46.621Z,34.72
2022-08-26T14:03:54.558Z,35.51
2022-08-26T14:07:04.257Z,34.10
2022-08-26T14:10:12.539Z,34.71
2022-08-26T14:13:20.614Z,36.08
2022-08-26T14:16:34.711Z,36.18
2022-08-26T14:19:49.452Z,36.08
2022-08-26T14:23:13.125Z,36.55
2022-08-26T14:26:29.243Z,36.22
2022-08-26T14:29:45.912Z,37.00
2022-08-26T14:32:58.138Z,37.15
2022-08-26T14:36:24.063Z,37.27
2022-08-26T14:39:31.707Z,37.58
2022-08-26T14:42:38.667Z,38.07
2022-08-26T14:45:46.341Z,37.97
2022-08-26T14:48:52.313Z,38.45
2022-08-26T14:52:03.585Z,38.62
2022-08-26T14:55:09.846Z,38.09
2022-08-26T14:58:15.980Z,37.83
2022-08-26T15:01:22.225Z,37.95
2022-08-26T15:04:30.188Z,38.19
2022-08-26T15:07:43.730Z,38.46
2022-08-26T15:10:54.448Z,38.76
2022-08-26T15:14:03.589Z,38.72
2022-08-26T15:17:12.094Z,38.49
2022-08-26T15:20:19.974Z,37.24
2022-08-26T15:23:27.830Z,38.16
2022-08-26T15:26:36.930Z,38.15
2022-08-26T15:29:46.591Z,37.78
2022-08-26T15:32:55.449Z,37.74
2022-08-26T15:36:04.954Z,37.91
2022-08-26T15:39:12.891Z,38.04
2022-08-26T15:42:19.011Z,37.89
2022-08-26T15:45:26.949Z,37.87
2022-08-26T15:48:35.409Z,37.91
2022-08-26T15:51:45.859Z,37.59
2022-08-26T15:54:54.561Z,37.31
2022-08-26T15:58:04.937Z,36.96
2022-08-26T16:01:14.141Z,36.61
2022-08-26T16:04:32.470Z,36.77
2022-08-26T16:07:40.331Z,36.36
2022-08-26T16:10:50.913Z,36.16
2022-08-26T16:13:58.949Z,35.16
2022-08-26T16:17:07.628Z,34.49
2022-08-26T16:20:16.569Z,33.90
2022-08-26T16:23:27.632Z,33.45
2022-08-26T16:26:38.832Z,33.14
2022-08-26T16:29:47.955Z,32.80
2022-08-26T16:32:57.937Z,32.56
2022-08-26T16:36:05.763Z,32.26
2022-08-26T16:39:13.790Z,31.92
2022-08-26T16:42:22.529Z,31.67
2022-08-26T16:45:33.350Z,31.40
2022-08-26T16:48:42.269Z,31.10
2022-08-26T16:51:49.525Z,30.90
2022-08-26T16:54:55.437Z,30.76
2022-08-26T16:58:01.470Z,30.51
2022-08-26T17:01:07.443Z,30.24
2022-08-26T17:04:14.622Z,30.00
2022-08-26T17:07:20.575Z,29.77
2022-08-26T17:10:28.955Z,29.48
2022-08-26T17:13:36.189Z,29.19
2022-08-26T17:16:41.977Z,28.95
2022-08-26T17:19:48.085Z,28.76
2022-08-26T17:22:56.080Z,28.55
2022-08-26T17:26:01.925Z,28.31
2022-08-26T17:29:08.098Z,28.13
2022-08-26T17:32:13.855Z,27.82
2022-08-26T17:35:20.114Z,27.67
2022-08-26T17:38:26.572Z,27.43
2022-08-26T17:41:33.001Z,27.28
2022-08-26T17:44:39.686Z,27.04
2022-08-26T17:47:46.147Z,26.81
2022-08-26T17:50:52.548Z,26.62
2022-08-26T17:53:59.063Z,26.37
2022-08-26T17:57:05.903Z,26.21
2022-08-26T18:00:21.407Z,26.07
2022-08-26T18:03:27.227Z,25.85
2022-08-26T18:06:33.277Z,25.72
2022-08-26T18:09:39.317Z,25.54
2022-08-26T18:12:45.863Z,25.38
2022-08-26T18:15:51.850Z,25.23
2022-08-26T18:18:57.748Z,25.09
2022-08-26T18:22:03.707Z,25.01
2022-08-26T18:25:10.398Z,24.90
2022-08-26T18:28:16.441Z,24.78
2022-08-26T18:31:22.419Z,24.65
2022-08-26T18:34:31.652Z,24.54
2022-08-26T18:37:38.098Z,24.45
2022-08-26T18:40:45.833Z,24.36
2022-08-26T18:43:53.865Z,24.26
2022-08-26T18:46:59.986Z,24.19
2022-08-26T18:50:07.929Z,24.07
2022-08-26T18:53:13.959Z,23.99
2022-08-26T18:56:20.610Z,23.85
2022-08-26T18:59:30.358Z,23.79
2022-08-26T19:02:38.257Z,23.74
2022-08-26T19:05:45.108Z,23.66
2022-08-26T19:08:54.471Z,23.53
2022-08-26T19:12:02.803Z,23.46
2022-08-26T19:15:09.868Z,23.43
2022-08-26T19:18:16.715Z,23.31
2022-08-26T19:21:23.567Z,23.23
2022-08-26T19:24:29.281Z,23.18
2022-08-26T19:27:35.635Z,23.14
2022-08-26T19:30:43.537Z,23.13
2022-08-26T19:33:49.690Z,23.09
2022-08-26T19:36:57.599Z,23.06
2022-08-26T19:40:03.723Z,23.02
2022-08-26T19:43:09.905Z,23.00
2022-08-26T19:46:21.441Z,22.97
2022-08-26T19:52:34.103Z,22.87
2022-08-26T19:55:40.419Z,22.86
2022-08-26T19:58:47.515Z,22.81
2022-08-26T20:02:01.376Z,22.82
2022-08-26T20:05:24.854Z,22.80
2022-08-26T20:08:30.841Z,22.74
2022-08-26T20:11:37.042Z,22.70
2022-08-26T20:14:43.148Z,22.71
2022-08-26T20:17:49.381Z,22.69
2022-08-26T20:21:15.653Z,22.68
2022-08-26T20:24:22.485Z,22.64
2022-08-26T20:27:38.134Z,22.62
2022-08-26T20:30:57.515Z,22.59
2022-08-26T20:34:03.348Z,22.54
2022-08-26T20:37:09.603Z,22.44
2022-08-26T20:40:15.657Z,22.38
2022-08-26T20:43:21.778Z,22.32
2022-08-26T20:46:27.893Z,22.28
2022-08-26T20:49:33.832Z,22.25
2022-08-26T20:52:40.981Z,22.24
2022-08-26T20:55:48.331Z,22.18
2022-08-26T21:02:17.510Z,22.08
2022-08-26T21:05:23.878Z,21.99
2022-08-26T21:08:33.264Z,21.95
2022-08-26T21:11:42.124Z,21.94
2022-08-26T21:14:49.651Z,21.86
2022-08-26T21:18:00.725Z,21.77
2022-08-26T21:21:08.710Z,21.73
2022-08-26T21:24:15.104Z,21.71
2022-08-26T21:27:26.359Z,21.63
2022-08-26T21:30:39.645Z,21.60
2022-08-26T21:33:46.543Z,21.58
2022-08-26T21:36:53.481Z,21.52
2022-08-26T21:40:02.587Z,21.49
2022-08-26T21:43:08.784Z,21.45
2022-08-26T21:46:38.157Z,21.43
2022-08-26T21:49:45.007Z,21.36
2022-08-26T21:52:51.164Z,21.29
2022-08-26T21:55:57.786Z,21.25
2022-08-26T21:59:03.878Z,21.18
2022-08-26T22:02:10.288Z,21.13
2022-08-26T22:05:17.118Z,21.09
2022-08-26T22:08:24.713Z,21.02
2022-08-26T22:11:34.725Z,20.99
2022-08-26T22:14:40.746Z,20.91
2022-08-26T22:17:46.549Z,20.86
2022-08-26T22:20:53.625Z,20.81
2022-08-26T22:24:00.291Z,20.77
2022-08-26T22:27:06.865Z,20.70
2022-08-26T22:30:13.290Z,20.66
2022-08-26T22:33:19.461Z,20.61
2022-08-26T22:36:28.395Z,20.56
2022-08-26T22:39:35.029Z,20.49
2022-08-26T22:42:42.615Z,20.45
2022-08-26T22:46:11.912Z,20.40
2022-08-26T22:49:18.553Z,20.36
2022-08-26T22:52:25.703Z,20.28
2022-08-26T22:55:31.954Z,20.27
2022-08-26T22:58:38.271Z,20.21
2022-08-26T23:01:45.057Z,20.20
2022-08-26T23:04:51.351Z,20.15
2022-08-26T23:07:58.192Z,20.09
2022-08-26T23:11:14.191Z,20.01
2022-08-26T23:14:22.408Z,20.02
2022-08-26T23:17:29.970Z,19.99
2022-08-26T23:20:37.057Z,19.92
2022-08-26T23:23:42.820Z,19.88
2022-08-26T23:26:50.750Z,19.83
2022-08-26T23:29:57.437Z,19.79
2022-08-26T23:33:03.483Z,19.73
2022-08-26T23:36:13.595Z,19.67
2022-08-26T23:39:27.111Z,19.60
2022-08-26T23:42:34.589Z,19.51
2022-08-26T23:45:42.301Z,19.41
2022-08-26T23:48:50.873Z,19.45
2022-08-26T23:52:17.450Z,19.44
2022-08-26T23:55:24.358Z,19.39
2022-08-26T23:58:34.490Z,19.37
